Manuccio II — IZFX — position and weather

sailwx.info

Track history (hours):
 
Tides and Currents Weather Stations Pressure Air Temp Water Temp Dewpoint Dewpoint Depression Visibility Wind Speed Wind Dir Waves Ship Positions

Manuccio II

Last reported at 2017-Jun-27 21:09 UTC. Time now 2017-Jul-25 02:29 UTC.
Position N 42°30' E 014°20'.
Warning: this ship's position is 27 days out of date.

Length 28 m.

MMSI: 247151150.

Date/timePositionNaut miles runAvg speedWind from/ knotsBaromVisibWave heightAir tempDewpointWater temp
2017-Jun-27 21:09N 42°30' E 014°20'2 9.7
2017-Jun-27 21:00N 42°30' E 014°22'7 0.1
2017-Jun-25 21:28N 42°28' E 014°14'  
2017-Jun-22 17:35N 42°33' E 014°44'0 3.3
2017-Jun-22 17:29N 42°33' E 014°44'2 3.4
2017-Jun-22 17:00N 42°33' E 014°46'2 3.5
2017-Jun-22 16:19N 42°34' E 014°49'3 8.9
2017-Jun-22 15:59N 42°34' E 014°53'3 4.8
2017-Jun-22 15:27N 42°34' E 014°57'19 3.3
2017-Jun-22 09:31N 42°48' E 015°15'1 3.5
2017-Jun-22 09:16N 42°48' E 015°16'4 0.2
2017-Jun-21 13:48N 42°49' E 015°22'1 0.6
2017-Jun-21 11:38N 42°48' E 015°22'1 3.6
2017-Jun-21 11:23N 42°48' E 015°23'1 3.6
2017-Jun-21 11:00N 42°48' E 015°25'6 3.0
2017-Jun-21 09:01N 42°47' E 015°33'3 3.3
2017-Jun-21 08:12N 42°47' E 015°30'2 3.4
2017-Jun-21 07:45N 42°48' E 015°28'18 3.4
2017-Jun-21 02:18N 42°44' E 015°03'310.0
2017-Jun-21 01:58N 42°43' E 014°59'5 9.8
2017-Jun-21 01:25N 42°41' E 014°52'6 9.7
2017-Jun-21 00:45N 42°38' E 014°44'3 9.6
2017-Jun-21 00:27N 42°37' E 014°41'14 9.7
2017-Jun-20 23:02N 42°31' E 014°24'010.1
2017-Jun-20 22:59N 42°31' E 014°23'4 2.2
2017-Jun-20 21:17N 42°31' E 014°18'3 9.7
2017-Jun-20 21:00N 42°33' E 014°21'5 9.7
2017-Jun-20 20:29N 42°36' E 014°26'9 9.0
2017-Jun-20 19:29N 42°42' E 014°35'1 2.1
2017-Jun-20 18:51N 42°43' E 014°36'2 3.5
2017-Jun-20 18:12N 42°44' E 014°39'1 3.5
2017-Jun-20 17:56N 42°45' E 014°39'2 3.5
2017-Jun-20 17:15N 42°47' E 014°42'1 3.4
2017-Jun-20 16:58N 42°47' E 014°43'2 4.0
2017-Jun-20 16:30N 42°49' E 014°45'3 5.2
2017-Jun-20 15:54N 42°51' E 014°48'1 3.2
2017-Jun-20 15:29N 42°51' E 014°49'3 3.5
2017-Jun-20 14:41N 42°53' E 014°52'11 1.1
2017-Jun-20 04:39N 42°59' E 015°05'1 3.6
2017-Jun-20 04:25N 42°59' E 015°04'4 3.6
2017-Jun-20 03:16N 42°58' E 014°59'15 1.4
2017-Jun-19 16:28N 42°47' E 014°44'  
Track history (hours):
 
Tides and Currents Weather Stations Pressure Air Temp Water Temp Dewpoint Dewpoint Depression Visibility Wind Speed Wind Dir Waves Ship Positions

Manuccio II

Last reported at 2017-Jun-27 21:09 UTC. Time now 2017-Jul-25 02:29 UTC.
Position N 42°30' E 014°20'.
Warning: this ship's position is 27 days out of date.

Length 28 m.

MMSI: 247151150.

Date/timePositionNaut miles runAvg speedWind from/ knotsBaromVisibWave heightAir tempDewpointWater temp
2017-Jun-27 21:09N 42°30' E 014°20'2 9.7
2017-Jun-27 21:00N 42°30' E 014°22'7 0.1
2017-Jun-25 21:28N 42°28' E 014°14'  
2017-Jun-22 17:35N 42°33' E 014°44'0 3.3
2017-Jun-22 17:29N 42°33' E 014°44'2 3.4
2017-Jun-22 17:00N 42°33' E 014°46'2 3.5
2017-Jun-22 16:19N 42°34' E 014°49'3 8.9
2017-Jun-22 15:59N 42°34' E 014°53'3 4.8
2017-Jun-22 15:27N 42°34' E 014°57'19 3.3
2017-Jun-22 09:31N 42°48' E 015°15'1 3.5
2017-Jun-22 09:16N 42°48' E 015°16'4 0.2
2017-Jun-21 13:48N 42°49' E 015°22'1 0.6
2017-Jun-21 11:38N 42°48' E 015°22'1 3.6
2017-Jun-21 11:23N 42°48' E 015°23'1 3.6
2017-Jun-21 11:00N 42°48' E 015°25'6 3.0
2017-Jun-21 09:01N 42°47' E 015°33'3 3.3
2017-Jun-21 08:12N 42°47' E 015°30'2 3.4
2017-Jun-21 07:45N 42°48' E 015°28'18 3.4
2017-Jun-21 02:18N 42°44' E 015°03'310.0
2017-Jun-21 01:58N 42°43' E 014°59'5 9.8
2017-Jun-21 01:25N 42°41' E 014°52'6 9.7
2017-Jun-21 00:45N 42°38' E 014°44'3 9.6
2017-Jun-21 00:27N 42°37' E 014°41'14 9.7
2017-Jun-20 23:02N 42°31' E 014°24'010.1
2017-Jun-20 22:59N 42°31' E 014°23'4 2.2
2017-Jun-20 21:17N 42°31' E 014°18'3 9.7
2017-Jun-20 21:00N 42°33' E 014°21'5 9.7
2017-Jun-20 20:29N 42°36' E 014°26'9 9.0
2017-Jun-20 19:29N 42°42' E 014°35'1 2.1
2017-Jun-20 18:51N 42°43' E 014°36'2 3.5
2017-Jun-20 18:12N 42°44' E 014°39'1 3.5
2017-Jun-20 17:56N 42°45' E 014°39'2 3.5
2017-Jun-20 17:15N 42°47' E 014°42'1 3.4
2017-Jun-20 16:58N 42°47' E 014°43'2 4.0
2017-Jun-20 16:30N 42°49' E 014°45'3 5.2
2017-Jun-20 15:54N 42°51' E 014°48'1 3.2
2017-Jun-20 15:29N 42°51' E 014°49'3 3.5
2017-Jun-20 14:41N 42°53' E 014°52'11 1.1
2017-Jun-20 04:39N 42°59' E 015°05'1 3.6
2017-Jun-20 04:25N 42°59' E 015°04'4 3.6
2017-Jun-20 03:16N 42°58' E 014°59'15 1.4
2017-Jun-19 16:28N 42°47' E 014°44'  

Dump ship's entire track history